createdAt,value
2018-02-14T05:24:30.472Z,80.83
2018-02-14T05:30:29.259Z,81.50
2018-02-14T09:01:52.859Z,68.27
2018-02-14T09:21:14.147Z,65.92
2018-02-14T09:23:59.625Z,68.11
2018-02-14T09:47:18.223Z,69.49
2018-02-14T09:49:53.162Z,69.48
2018-02-14T10:29:33.741Z,63.30
2018-02-14T10:32:05.758Z,63.00
2018-02-14T10:35:00.078Z,62.04
2018-02-14T10:40:10.457Z,60.14
2018-02-14T10:42:42.274Z,57.26
2018-02-14T10:45:21.591Z,57.81
2018-02-14T10:47:53.730Z,56.97
2018-02-14T10:50:22.957Z,60.11
2018-02-14T10:52:52.875Z,58.52
2018-02-14T10:55:23.691Z,58.76
2018-02-14T10:57:52.785Z,56.89
2018-02-14T11:00:27.122Z,55.83
2018-02-14T11:03:00.486Z,57.28
2018-02-14T11:05:33.409Z,56.18
2018-02-14T11:08:02.301Z,53.82
2018-02-14T11:10:30.380Z,51.95
2018-02-14T11:12:58.505Z,49.06
2018-02-14T11:15:26.371Z,51.24
2018-02-14T11:17:54.192Z,50.82
2018-02-14T11:20:22.108Z,49.03
2018-02-14T11:22:50.217Z,48.31
2018-02-14T11:25:18.245Z,49.23
2018-02-14T11:27:46.059Z,52.25
2018-02-14T11:30:13.982Z,53.84
2018-02-14T11:32:41.894Z,54.37
2018-02-14T11:35:09.783Z,53.57
2018-02-14T11:37:37.651Z,54.07
2018-02-14T11:40:05.821Z,52.64
2018-02-14T11:42:34.533Z,56.00
2018-02-14T11:45:02.556Z,57.73
2018-02-14T11:47:30.628Z,56.66
2018-02-14T11:49:58.675Z,55.49
2018-02-14T11:52:26.628Z,57.88
2018-02-14T11:54:54.638Z,56.75
2018-02-14T11:57:31.708Z,55.41
2018-02-14T11:59:59.591Z,54.71
2018-02-14T12:02:27.662Z,55.08
2018-02-14T12:04:56.411Z,55.27
2018-02-14T12:07:24.242Z,56.30
2018-02-14T12:09:52.299Z,56.16
2018-02-14T12:12:21.061Z,56.70
2018-02-14T12:14:48.952Z,54.80
2018-02-14T12:17:16.918Z,54.88
2018-02-14T12:19:44.884Z,56.14
2018-02-14T12:22:12.701Z,57.83
2018-02-14T12:24:40.702Z,56.89
2018-02-14T12:27:09.199Z,56.36
2018-02-14T12:29:38.290Z,56.47
2018-02-14T12:32:06.578Z,56.72
2018-02-14T12:34:34.425Z,55.84
2018-02-14T12:37:02.253Z,56.65
2018-02-14T12:39:31.299Z,54.93
2018-02-14T12:41:59.240Z,55.95
2018-02-14T12:44:27.254Z,56.93
2018-02-14T12:46:55.311Z,56.46
2018-02-14T12:49:23.380Z,57.43
2018-02-14T12:51:52.794Z,56.88
2018-02-14T12:54:21.314Z,57.99
2018-02-14T12:56:51.468Z,58.36
2018-02-14T12:59:19.332Z,56.46
2018-02-14T13:01:47.328Z,58.01
2018-02-14T13:04:15.396Z,60.26
2018-02-14T13:06:43.303Z,59.99
2018-02-14T13:09:11.155Z,61.00
2018-02-14T13:11:39.192Z,60.71
2018-02-14T13:14:07.061Z,61.95
2018-02-14T13:16:35.204Z,62.47
2018-02-14T13:19:03.318Z,61.40
2018-02-14T13:21:31.343Z,62.48
2018-02-14T13:23:59.228Z,61.65
2018-02-14T13:26:27.291Z,62.13
2018-02-14T13:28:56.017Z,62.94
2018-02-14T13:31:24.087Z,62.15
2018-02-14T13:33:52.262Z,62.38
2018-02-14T13:36:20.293Z,62.84
2018-02-14T13:38:48.378Z,63.05
2018-02-14T13:41:16.322Z,64.10
2018-02-14T13:43:44.355Z,64.86
2018-02-14T13:46:12.336Z,65.48
2018-02-14T13:48:40.872Z,65.09
2018-02-14T13:51:09.791Z,65.39
2018-02-14T13:53:38.171Z,65.81
2018-02-14T13:56:06.225Z,65.92
2018-02-14T13:58:34.145Z,66.44
2018-02-14T14:01:02.253Z,66.62
2018-02-14T14:03:30.346Z,66.77
2018-02-14T14:05:58.488Z,66.81
2018-02-14T14:08:26.480Z,67.08
2018-02-14T14:10:54.567Z,67.79
2018-02-14T14:13:22.638Z,68.87
2018-02-14T14:15:51.504Z,69.41
2018-02-14T14:18:19.611Z,72.09
2018-02-14T14:20:48.768Z,72.42
2018-02-14T14:23:16.874Z,72.68
2018-02-14T14:25:44.844Z,72.72
2018-02-14T14:28:12.920Z,73.04
2018-02-14T14:30:40.707Z,74.51
2018-02-14T14:33:09.820Z,74.18
2018-02-14T14:35:37.949Z,73.29
2018-02-14T14:38:05.983Z,73.01
2018-02-14T14:40:34.092Z,75.46
2018-02-14T14:43:02.050Z,75.28
2018-02-14T14:45:30.119Z,74.43
2018-02-14T14:48:02.202Z,76.76
2018-02-14T14:50:30.187Z,77.65
2018-02-14T14:52:58.058Z,77.74
2018-02-14T14:55:25.954Z,77.43
2018-02-14T14:57:54.079Z,78.85
2018-02-14T15:00:21.964Z,79.33
2018-02-14T15:02:49.918Z,78.92
2018-02-14T15:05:18.602Z,76.81
2018-02-14T15:07:47.594Z,75.89
2018-02-14T15:10:15.977Z,75.53
2018-02-14T15:12:44.357Z,75.47
2018-02-14T15:15:12.510Z,75.80
2018-02-14T15:17:41.016Z,77.13
2018-02-14T15:20:09.384Z,77.19
2018-02-14T15:22:38.223Z,76.69
2018-02-14T15:25:06.541Z,78.04
2018-02-14T15:27:34.955Z,78.55
2018-02-14T15:30:06.488Z,78.65
2018-02-14T15:32:34.618Z,78.12
2018-02-14T15:35:02.837Z,78.29
2018-02-14T15:37:31.289Z,79.20
2018-02-14T15:40:00.316Z,79.41
2018-02-14T16:04:02.728Z,79.46
2018-02-14T16:06:30.789Z,79.38
2018-02-14T16:08:58.874Z,78.99
2018-02-14T16:11:27.149Z,79.20
2018-02-14T16:13:57.352Z,78.85
2018-02-14T16:16:25.619Z,79.87
2018-02-14T16:18:53.872Z,80.81
2018-02-14T16:21:21.867Z,79.90
2018-02-14T16:23:49.966Z,79.76
2018-02-14T16:26:17.857Z,79.86
2018-02-14T16:28:45.908Z,79.77
2018-02-14T16:31:14.018Z,79.52
2018-02-14T16:33:42.256Z,79.60
2018-02-14T16:36:10.272Z,79.20
2018-02-14T16:38:38.608Z,79.42
2018-02-14T16:41:07.001Z,79.78
2018-02-14T16:43:35.159Z,80.02
2018-02-14T16:46:03.112Z,79.65
2018-02-14T16:48:30.906Z,79.81
2018-02-14T16:50:58.893Z,79.53
2018-02-14T16:53:26.934Z,79.58
2018-02-14T16:55:54.863Z,79.59
2018-02-14T16:58:23.272Z,79.12
2018-02-14T17:00:51.354Z,79.27
2018-02-14T17:03:19.529Z,79.36
2018-02-14T17:05:48.402Z,79.81
2018-02-14T17:08:16.586Z,79.91
2018-02-14T17:10:45.798Z,80.37
2018-02-14T17:13:13.595Z,80.31
2018-02-14T17:15:41.479Z,80.47
2018-02-14T17:18:09.596Z,80.56
2018-02-14T17:20:37.825Z,80.28
2018-02-14T17:23:06.521Z,80.23
2018-02-14T17:25:34.380Z,80.93
2018-02-14T17:28:02.211Z,81.38
2018-02-14T17:30:30.280Z,81.95
2018-02-14T17:32:58.750Z,81.17
2018-02-14T17:35:26.818Z,81.40
2018-02-14T17:37:55.610Z,81.36
2018-02-14T17:40:23.689Z,82.86
2018-02-14T17:42:51.824Z,82.87
2018-02-14T17:45:19.992Z,81.69
2018-02-14T17:47:47.888Z,81.37
2018-02-14T17:50:15.854Z,81.37
2018-02-14T17:52:44.091Z,80.98
2018-02-14T17:55:13.220Z,81.03
2018-02-14T17:57:41.234Z,81.02
2018-02-14T18:00:08.992Z,81.12
2018-02-14T18:02:36.787Z,81.38
2018-02-14T18:05:08.239Z,82.52
2018-02-14T18:07:36.363Z,81.69
2018-02-14T18:10:05.407Z,81.76
2018-02-14T18:12:33.178Z,82.12
2018-02-14T18:15:02.664Z,82.55
2018-02-14T18:17:30.694Z,81.28
2018-02-14T18:19:59.103Z,80.86
2018-02-14T18:22:27.246Z,80.96
2018-02-14T18:24:56.284Z,81.99
2018-02-14T18:27:26.614Z,82.88
2018-02-14T18:29:54.746Z,82.04
2018-02-14T18:32:22.922Z,81.84
2018-02-14T18:34:51.779Z,81.50
2018-02-14T18:37:20.654Z,82.92
2018-02-14T18:39:49.060Z,81.68
2018-02-14T18:42:17.370Z,81.08
2018-02-14T18:44:45.190Z,80.92
2018-02-14T18:47:13.188Z,81.92
2018-02-14T18:49:41.190Z,82.45
2018-02-14T18:52:10.604Z,82.79
2018-02-14T18:54:42.217Z,82.75
2018-02-14T18:57:10.539Z,82.99
2018-02-14T18:59:39.319Z,83.15
2018-02-14T19:02:07.764Z,82.27
2018-02-14T19:04:36.452Z,82.61
2018-02-14T19:07:04.187Z,82.41
2018-02-14T19:09:34.145Z,83.05
2018-02-14T19:12:02.277Z,83.30
2018-02-14T19:14:30.905Z,83.19
2018-02-14T19:17:00.283Z,82.24
2018-02-14T19:19:28.035Z,81.93
2018-02-14T19:21:56.608Z,81.21
2018-02-14T19:24:24.756Z,81.23
2018-02-14T19:26:54.732Z,82.53
2018-02-14T19:29:23.462Z,83.04
2018-02-14T19:31:51.671Z,83.52
2018-02-14T19:34:19.821Z,83.16
2018-02-14T19:36:47.886Z,83.23
2018-02-14T19:39:15.756Z,83.70
2018-02-14T19:41:44.557Z,83.94
2018-02-14T19:44:12.875Z,84.01
2018-02-14T19:46:42.172Z,83.91
2018-02-14T19:49:12.398Z,84.28
2018-02-14T19:51:40.524Z,84.61
2018-02-14T19:54:10.040Z,84.11
2018-02-14T19:56:38.874Z,83.70
2018-02-14T19:59:10.280Z,84.12
2018-02-14T20:01:40.256Z,84.15
2018-02-14T20:04:08.513Z,84.13
2018-02-14T20:06:39.172Z,83.59
2018-02-14T20:09:08.693Z,83.94
2018-02-14T20:11:50.646Z,83.58
2018-02-14T20:14:24.188Z,82.52
2018-02-14T20:16:55.228Z,82.86
2018-02-14T20:19:36.303Z,82.35
2018-02-14T20:22:07.758Z,82.15
2018-02-14T20:24:45.220Z,82.71
2018-02-14T20:27:19.422Z,82.51
2018-02-14T20:29:51.940Z,81.68
2018-02-14T20:32:33.138Z,82.53
2018-02-14T20:35:17.315Z,83.00
2018-02-14T20:38:07.740Z,83.45
2018-02-14T20:42:02.728Z,83.43
2018-02-14T20:55:00.306Z,84.59
2018-02-14T21:18:19.573Z,83.77
2018-02-14T21:35:42.036Z,83.80
2018-02-14T21:41:32.592Z,84.49
2018-02-14T21:47:40.986Z,83.99
2018-02-14T22:45:05.890Z,85.50
2018-02-14T22:51:21.441Z,85.36
2018-02-14T23:37:59.107Z,83.59
